Time;durP1;ratioP1;P1;durP2;ratioP2;P2;SDS_P1;SDS_P2;PMS_P1;PMS_P2;Temp;Humidity;BMP_temperature;BMP_pressure;BME280_temperature;BME280_humidity;BME280_pressure;Samples;Min_cycle;Max_cycle;Signal;HPM_P1;HPM_P2
2022/07/28 00:01:05;;;;;;;26.50;16.85;;;;;;;20.28;72.48;99523.03;4810796;29;20050;-82
2022/07/28 00:03:32;;;;;;;31.70;19.33;;;;;;;20.36;72.47;99525.25;4811918;29;20058;-80
2022/07/28 00:05:59;;;;;;;27.88;17.63;;;;;;;20.39;72.58;99528.59;4811024;29;20130;-81
2022/07/28 00:08:25;;;;;;;25.40;17.27;;;;;;;20.13;72.69;99501.78;4810921;29;20496;-80
2022/07/28 00:10:51;;;;;;;24.60;16.30;;;;;;;20.34;72.44;99542.97;4802755;29;20058;-81
2022/07/28 00:13:17;;;;;;;22.92;16.63;;;;;;;20.22;72.45;99525.97;4815229;29;20520;-81
2022/07/28 00:15:43;;;;;;;20.88;15.88;;;;;;;20.32;72.20;99545.72;4831030;29;20111;-80
2022/07/28 00:18:10;;;;;;;23.73;16.20;;;;;;;20.14;72.38;99524.63;4811181;29;21822;-81
2022/07/28 00:20:36;;;;;;;26.33;16.55;;;;;;;20.07;72.07;99520.59;4812759;29;20408;-81
2022/07/28 00:23:05;;;;;;;27.85;17.40;;;;;;;20.02;71.64;99517.34;4808455;29;20423;-80
2022/07/28 00:25:33;;;;;;;27.23;17.02;;;;;;;20.25;71.70;99554.88;4800562;29;20454;-82
2022/07/28 00:28:01;;;;;;;27.65;17.00;;;;;;;20.15;71.97;99543.94;4807714;29;20062;-80
2022/07/28 00:30:27;;;;;;;33.22;24.75;;;;;;;19.91;71.75;99504.69;4810593;29;20052;-80
2022/07/28 00:32:53;;;;;;;30.48;20.10;;;;;;;20.09;72.41;99528.41;4809930;29;20515;-80
2022/07/28 00:35:22;;;;;;;26.73;18.27;;;;;;;20.11;72.54;99534.47;4794940;29;20146;-80
2022/07/28 00:37:48;;;;;;;27.40;18.10;;;;;;;20.14;72.46;99547.53;4809059;29;20079;-79
2022/07/28 00:40:15;;;;;;;29.50;18.40;;;;;;;20.12;72.70;99550.25;4810174;29;20049;-82
2022/07/28 00:42:42;;;;;;;24.38;17.38;;;;;;;20.04;72.76;99544.50;4796180;29;20083;-81
2022/07/28 00:45:08;;;;;;;24.30;18.45;;;;;;;20.07;72.57;99549.63;4810956;29;20043;-81
2022/07/28 00:47:34;;;;;;;26.95;17.33;;;;;;;19.82;72.55;99515.72;4815284;29;20046;-80
2022/07/28 00:50:04;;;;;;;21.15;16.55;;;;;;;19.97;72.56;99538.72;4822618;29;20161;-80
2022/07/28 00:52:32;;;;;;;23.52;16.20;;;;;;;20.00;72.65;99541.19;4819872;29;20607;-81
2022/07/28 00:54:58;;;;;;;26.75;17.92;;;;;;;20.04;72.37;99551.59;4812541;29;20099;-80
2022/07/28 00:57:24;;;;;;;25.00;16.50;;;;;;;19.91;72.64;99522.34;4805633;29;20090;-80
2022/07/28 00:59:51;;;;;;;23.75;16.70;;;;;;;19.87;72.59;99521.59;4796574;29;20863;-80
2022/07/28 01:02:17;;;;;;;24.27;17.38;;;;;;;19.76;72.54;99500.19;4802387;29;20042;-80
2022/07/28 01:04:44;;;;;;;25.05;16.92;;;;;;;19.88;72.41;99523.34;4807648;29;20093;-81
2022/07/28 01:07:32;;;;;;;24.40;17.67;;;;;;;19.80;72.59;99513.16;4809031;29;20050;-80
2022/07/28 01:10:40;;;;;;;23.50;17.63;;;;;;;19.92;72.60;99532.81;4810091;29;20047;-80
2022/07/28 01:13:10;;;;;;;29.38;19.38;;;;;;;19.72;72.56;99507.44;4757284;29;20043;-80
2022/07/28 01:16:00;;;;;;;26.42;18.13;;;;;;;19.68;72.70;99503.22;4802423;29;20050;-82
2022/07/28 01:18:34;;;;;;;25.10;18.48;;;;;;;19.72;72.48;99516.19;4807180;29;20066;-79
2022/07/28 01:21:15;;;;;;;29.67;18.88;;;;;;;19.79;72.54;99543.09;4825618;29;20046;-80
2022/07/28 01:24:09;;;;;;;26.33;19.25;;;;;;;19.80;72.67;99552.75;4826886;29;20445;-80
2022/07/28 01:26:50;;;;;;;27.55;17.88;;;;;;;19.62;72.90;99525.53;4812389;29;20043;-80
2022/07/28 01:30:01;;;;;;;25.30;17.85;;;;;;;19.65;72.90;99535.06;4811040;29;20137;-81
2022/07/28 01:32:45;;;;;;;30.08;19.05;;;;;;;19.53;73.15;99515.41;4821352;29;20089;-79
2022/07/28 01:35:24;;;;;;;26.23;18.58;;;;;;;19.72;73.35;99536.47;4786666;29;20058;-79
2022/07/28 01:37:53;;;;;;;27.90;19.45;;;;;;;19.70;73.11;99541.78;4806857;29;20054;-79
2022/07/28 01:40:27;;;;;;;25.08;18.23;;;;;;;19.64;73.53;99533.34;4817279;29;20105;-82
2022/07/28 01:42:58;;;;;;;25.73;17.63;;;;;;;19.46;73.65;99496.41;4826565;29;20043;-79
2022/07/28 01:45:26;;;;;;;24.73;19.60;;;;;;;19.57;73.67;99520.44;4837440;29;20049;-80
2022/07/28 01:47:54;;;;;;;24.42;19.08;;;;;;;19.61;73.79;99528.22;4825233;29;20092;-79
2022/07/28 01:50:23;;;;;;;26.98;18.65;;;;;;;19.58;74.00;99521.31;4822121;29;20062;-79
2022/07/28 01:52:51;;;;;;;27.63;18.95;;;;;;;19.64;73.98;99528.06;4825701;29;20049;-81
2022/07/28 01:55:19;;;;;;;26.50;18.13;;;;;;;19.64;73.87;99533.34;4813031;29;20046;-81
2022/07/28 01:57:47;;;;;;;27.17;20.40;;;;;;;19.63;74.13;99521.94;4828125;29;20049;-80
2022/07/28 02:00:16;;;;;;;24.55;19.00;;;;;;;19.63;74.03;99526.34;4816176;29;20046;-79
2022/07/28 02:02:46;;;;;;;22.17;17.45;;;;;;;19.60;74.30;99516.81;4803375;29;20135;-81
2022/07/28 02:05:18;;;;;;;22.33;17.30;;;;;;;19.70;74.12;99522.47;4808530;29;20070;-80
2022/07/28 02:07:49;;;;;;;24.35;17.25;;;;;;;19.68;74.25;99519.91;4803331;29;20041;-80
2022/07/28 02:10:16;;;;;;;26.20;17.48;;;;;;;19.77;74.23;99529.13;4809457;29;20477;-78
2022/07/28 02:12:45;;;;;;;23.05;16.80;;;;;;;19.79;74.03;99531.72;4808585;29;20042;-81
2022/07/28 02:15:32;;;;;;;27.60;18.98;;;;;;;19.86;74.08;99533.13;4810045;29;20054;-79
2022/07/28 02:17:59;;;;;;;26.50;17.50;;;;;;;19.88;74.19;99535.69;4808088;29;20043;-81
2022/07/28 02:20:26;;;;;;;25.25;18.25;;;;;;;19.97;74.30;99533.44;4795992;29;20042;-81
2022/07/28 02:22:53;;;;;;;24.35;17.52;;;;;;;19.94;74.22;99515.09;4810914;29;20052;-81
2022/07/28 02:25:20;;;;;;;27.30;17.35;;;;;;;20.07;73.95;99540.88;4808546;29;20043;-79
2022/07/28 02:28:07;;;;;;;24.55;17.17;;;;;;;20.10;74.32;99536.28;4808342;29;20046;-82
2022/07/28 02:30:40;;;;;;;21.35;16.95;;;;;;;20.08;73.91;99524.94;4800289;29;20145;-81
2022/07/28 02:33:33;;;;;;;27.88;18.20;;;;;;;19.94;74.10;99486.06;4792786;29;20052;-81
2022/07/28 02:36:09;;;;;;;27.50;17.80;;;;;;;20.27;73.99;99534.53;4793790;29;20519;-80
2022/07/28 02:38:43;;;;;;;27.95;17.15;;;;;;;20.31;73.64;99518.41;4814863;29;20100;-80
2022/07/28 02:41:23;;;;;;;31.50;19.48;;;;;;;20.42;73.66;99533.69;4796166;29;20443;-79
2022/07/28 02:43:53;;;;;;;24.08;16.42;;;;;;;20.49;73.91;99536.00;4800929;29;20081;-80
2022/07/28 02:46:25;;;;;;;35.65;23.45;;;;;;;20.49;73.33;99522.78;4808510;29;20043;-80
2022/07/28 02:49:03;;;;;;;32.45;19.67;;;;;;;20.52;73.44;99533.19;4799792;29;20062;-80
2022/07/28 02:51:33;;;;;;;26.95;19.08;;;;;;;20.48;73.40;99524.59;4820914;29;20039;-79
2022/07/28 02:54:02;;;;;;;24.85;17.30;;;;;;;20.54;73.64;99513.66;4818662;29;20043;-81
2022/07/28 02:56:30;;;;;;;25.20;17.25;;;;;;;20.63;73.63;99522.91;4808251;29;20503;-81
2022/07/28 02:58:57;;;;;;;27.80;17.67;;;;;;;20.68;73.38;99517.34;4807527;29;20054;-81
2022/07/28 03:01:24;;;;;;;22.17;17.90;;;;;;;20.89;73.42;99531.19;4806267;29;20053;-80
2022/07/28 03:03:51;;;;;;;23.20;17.92;;;;;;;20.84;73.27;99509.47;4809445;29;21008;-79
2022/07/28 03:06:19;;;;;;;20.23;16.58;;;;;;;21.00;73.14;99515.59;4806637;29;20598;-82
2022/07/28 03:08:45;;;;;;;32.83;20.50;;;;;;;20.98;72.74;99498.94;4807955;29;20123;-79
2022/07/28 03:11:13;;;;;;;28.13;21.27;;;;;;;21.32;72.66;99541.13;4820776;29;20705;-81
2022/07/28 03:13:41;;;;;;;28.02;19.73;;;;;;;21.17;72.14;99493.47;4821402;29;20142;-82
2022/07/28 03:16:08;;;;;;;27.83;20.10;;;;;;;21.33;71.95;99517.22;4806634;29;20046;-79
2022/07/28 03:18:34;;;;;;;23.83;18.63;;;;;;;21.56;72.17;99532.72;4818953;29;20082;-80
2022/07/28 03:21:01;;;;;;;23.05;17.88;;;;;;;21.63;72.00;99513.75;4833102;29;20049;-79
2022/07/28 03:23:42;;;;;;;25.80;18.55;;;;;;;21.70;71.58;99498.34;4805594;29;20042;-82
2022/07/28 03:26:18;;;;;;;24.38;18.27;;;;;;;22.03;71.72;99536.13;4813002;29;20046;-84
2022/07/28 03:28:50;;;;;;;23.30;17.88;;;;;;;21.90;71.61;99490.97;4813432;29;20081;-84
2022/07/28 03:31:19;;;;;;;27.98;19.17;;;;;;;22.05;70.87;99486.53;4815504;29;20046;-84
2022/07/28 03:33:46;;;;;;;23.55;18.08;;;;;;;22.24;71.07;99496.88;4818942;29;20050;-83
2022/07/28 03:36:17;;;;;;;27.85;17.80;;;;;;;22.61;70.90;99536.16;4814244;29;20039;-82
2022/07/28 03:39:05;;;;;;;26.27;17.60;;;;;;;22.70;70.23;99520.50;4812682;29;20049;-83
2022/07/28 03:41:33;;;;;;;27.58;17.30;;;;;;;22.75;69.95;99506.94;4812274;29;20057;-81
2022/07/28 03:44:01;;;;;;;19.17;17.08;;;;;;;23.08;69.31;99534.03;4808593;29;20129;-81
2022/07/28 03:46:29;;;;;;;24.13;17.65;;;;;;;22.95;69.12;99497.66;4821933;29;20094;-79
2022/07/28 03:48:55;;;;;;;22.17;16.25;;;;;;;23.32;69.09;99539.53;4799910;29;20061;-83
2022/07/28 03:51:24;;;;;;;23.45;16.88;;;;;;;23.33;69.05;99520.00;4819902;29;20491;-82
2022/07/28 03:53:50;;;;;;;22.98;17.10;;;;;;;23.57;68.50;99537.91;4825934;29;20076;-82
2022/07/28 03:56:18;;;;;;;23.42;16.20;;;;;;;23.61;68.09;99520.81;4822088;29;20050;-82
2022/07/28 03:58:44;;;;;;;23.05;17.52;;;;;;;23.89;67.89;99540.19;4815596;29;20049;-79
2022/07/28 04:01:10;;;;;;;21.17;16.95;;;;;;;23.93;67.34;99515.13;4812675;29;20090;-82
2022/07/28 04:03:37;;;;;;;21.75;16.45;;;;;;;24.21;67.20;99543.31;4807884;29;20065;-79
2022/07/28 04:06:14;;;;;;;22.92;16.88;;;;;;;24.32;66.59;99545.19;4814097;29;20465;-82
2022/07/28 04:08:41;;;;;;;21.17;16.58;;;;;;;24.44;65.83;99547.94;4817087;29;20133;-80
2022/07/28 04:11:08;;;;;;;21.02;17.20;;;;;;;24.43;66.03;99543.56;4803534;29;20038;-79
2022/07/28 04:13:38;;;;;;;20.25;15.80;;;;;;;24.47;66.15;99547.72;4810974;29;20053;-78
2022/07/28 04:16:08;;;;;;;20.02;15.30;;;;;;;24.71;65.60;99546.97;4825683;29;20050;-82
2022/07/28 04:18:34;;;;;;;18.73;14.98;;;;;;;24.88;65.38;99541.25;4825093;29;20108;-78
2022/07/28 04:21:01;;;;;;;19.60;15.10;;;;;;;25.08;64.59;99552.25;4822456;29;20038;-81
2022/07/28 04:23:28;;;;;;;18.08;15.00;;;;;;;25.27;64.79;99541.94;4808042;29;20054;-81
2022/07/28 04:25:54;;;;;;;18.55;14.45;;;;;;;25.52;64.05;99533.97;4819135;29;20043;-81
2022/07/28 04:28:20;;;;;;;18.92;14.73;;;;;;;25.89;63.96;99538.28;4807381;29;20055;-79
2022/07/28 04:30:46;;;;;;;17.90;13.10;;;;;;;26.05;63.45;99501.47;4798196;29;20582;-79
2022/07/28 04:33:12;;;;;;;15.85;12.40;;;;;;;26.58;62.35;99524.03;4808513;29;20051;-79
2022/07/28 04:35:39;;;;;;;14.65;12.38;;;;;;;27.02;61.28;99540.09;4814900;29;20519;-80
2022/07/28 04:38:06;;;;;;;15.50;12.25;;;;;;;27.13;59.93;99533.88;4807418;29;20416;-78
2022/07/28 04:40:33;;;;;;;18.40;13.60;;;;;;;27.18;58.97;99537.84;4801571;29;20058;-80
2022/07/28 04:42:59;;;;;;;15.63;12.50;;;;;;;26.99;57.83;99541.19;4799203;29;20051;-79
2022/07/28 04:45:26;;;;;;;15.80;11.80;;;;;;;26.81;58.69;99532.03;4814621;29;20046;-79
2022/07/28 04:47:52;;;;;;;16.80;12.88;;;;;;;26.57;58.26;99517.00;4814942;29;20042;-76
2022/07/28 04:50:20;;;;;;;16.02;11.88;;;;;;;26.51;58.10;99542.31;4801509;29;20047;-78
2022/07/28 04:52:48;;;;;;;12.23;10.63;;;;;;;26.57;57.86;99549.00;4817107;29;20079;-79
2022/07/28 04:55:15;;;;;;;14.15;11.55;;;;;;;26.71;58.03;99532.72;4828263;29;20095;-80
2022/07/28 04:57:42;;;;;;;15.63;12.55;;;;;;;26.89;57.73;99538.44;4799973;29;20519;-78
2022/07/28 05:00:12;;;;;;;15.88;11.23;;;;;;;27.00;56.92;99529.56;4809001;29;20046;-79
2022/07/28 05:02:40;;;;;;;14.10;11.95;;;;;;;27.20;57.08;99540.41;4805551;29;20062;-78
2022/07/28 05:05:08;;;;;;;18.92;11.35;;;;;;;27.39;56.62;99529.00;4805998;29;20062;-79
2022/07/28 05:07:35;;;;;;;13.80;11.60;;;;;;;27.59;55.74;99540.72;4805642;29;20055;-77
2022/07/28 05:10:02;;;;;;;14.23;12.00;;;;;;;27.76;55.26;99541.13;4808977;29;20047;-78
2022/07/28 05:12:29;;;;;;;14.90;10.85;;;;;;;27.98;54.81;99555.31;4807519;29;20093;-79
2022/07/28 05:14:55;;;;;;;15.13;11.77;;;;;;;28.10;54.35;99532.88;4790641;29;20540;-80
2022/07/28 05:17:21;;;;;;;15.43;11.88;;;;;;;28.36;54.17;99544.00;4823523;29;20464;-79
2022/07/28 05:19:48;;;;;;;16.27;11.50;;;;;;;28.51;53.64;99540.94;4806074;29;20042;-79
2022/07/28 05:22:15;;;;;;;16.58;11.85;;;;;;;28.60;53.27;99550.84;4814599;29;20499;-80
2022/07/28 05:24:44;;;;;;;13.63;11.40;;;;;;;28.84;52.89;99549.66;4800587;29;20078;-80
2022/07/28 05:27:13;;;;;;;13.18;11.40;;;;;;;28.97;52.33;99544.88;4806842;29;20046;-81
2022/07/28 05:29:40;;;;;;;12.35;10.88;;;;;;;29.33;52.13;99543.50;4790984;29;20050;-81
2022/07/28 05:32:11;;;;;;;17.67;11.90;;;;;;;29.60;51.75;99521.38;4813534;29;20127;-82
2022/07/28 05:34:37;;;;;;;;;;;;;;;29.98;50.93;99561.69;4814124;29;20043;-83
2022/07/28 05:37:03;;;;;;;18.00;11.93;;;;;;;30.18;50.19;99549.03;4816038;29;20038;-80
2022/07/28 05:39:32;;;;;;;17.15;11.38;;;;;;;30.44;49.07;99556.44;4812840;29;20415;-80
2022/07/28 05:41:59;;;;;;;14.85;10.88;;;;;;;30.49;48.82;99543.41;4815113;29;20042;-80
2022/07/28 05:44:26;;;;;;;18.60;11.27;;;;;;;30.78;48.80;99523.66;4813314;29;20039;-80
2022/07/28 05:46:52;;;;;;;17.25;10.57;;;;;;;31.83;47.88;99531.13;4814107;29;20051;-82
2022/07/28 05:49:18;;;;;;;17.98;10.65;;;;;;;33.24;44.81;99531.69;4800259;29;20266;-80
2022/07/28 05:51:44;;;;;;;16.13;10.52;;;;;;;34.63;43.38;99512.69;4813103;29;20037;-78
2022/07/28 05:54:10;;;;;;;17.05;10.45;;;;;;;36.06;39.87;99534.72;4802646;29;20049;-80
2022/07/28 05:56:36;;;;;;;13.35;10.52;;;;;;;37.11;37.33;99537.28;4812774;29;20067;-80
2022/07/28 05:59:03;;;;;;;11.90;9.85;;;;;;;37.89;35.70;99524.75;4830149;29;20058;-79
2022/07/28 06:01:35;;;;;;;12.13;9.32;;;;;;;38.44;34.11;99538.47;4812039;29;20046;-79
2022/07/28 06:04:01;;;;;;;10.98;9.40;;;;;;;39.17;33.30;99518.81;4815005;29;20100;-80
2022/07/28 06:06:28;;;;;;;11.88;9.77;;;;;;;40.02;31.12;99519.19;4815616;29;20050;-80
2022/07/28 06:08:54;;;;;;;11.15;8.90;;;;;;;41.04;29.79;99536.78;4816071;29;20061;-83
2022/07/28 06:11:21;;;;;;;13.20;8.95;;;;;;;41.81;28.70;99533.03;4795283;29;20047;-86
2022/07/28 06:13:52;;;;;;;12.70;9.13;;;;;;;42.84;27.56;99540.63;4808477;29;20075;-82
2022/07/28 06:16:19;;;;;;;12.90;8.93;;;;;;;43.64;26.30;99549.50;4818201;29;20066;-79
2022/07/28 06:18:46;;;;;;;10.60;9.25;;;;;;;43.70;24.97;99528.56;4837585;29;20095;-82
2022/07/28 06:21:12;;;;;;;10.05;8.13;;;;;;;43.57;24.86;99538.66;4811915;29;20052;-82
2022/07/28 06:23:38;;;;;;;9.77;8.25;;;;;;;43.50;24.41;99535.19;4823320;29;20046;-82
2022/07/28 06:26:04;;;;;;;9.05;8.13;;;;;;;44.16;22.92;99550.66;4813935;29;20038;-81
2022/07/28 06:28:31;;;;;;;9.45;8.30;;;;;;;44.45;22.65;99537.03;4819553;29;20113;-83
2022/07/28 06:30:57;;;;;;;9.35;8.55;;;;;;;44.07;22.69;99520.06;4809421;29;20074;-80
2022/07/28 06:33:24;;;;;;;9.98;8.27;;;;;;;43.36;22.23;99534.63;4795424;29;20042;-82
2022/07/28 06:35:50;;;;;;;8.82;8.00;;;;;;;42.62;23.64;99534.84;4813527;29;20044;-78
2022/07/28 06:38:19;;;;;;;9.23;8.35;;;;;;;42.24;23.70;99521.22;4824066;29;20058;-79
2022/07/28 06:40:46;;;;;;;9.30;8.38;;;;;;;41.88;23.83;99533.78;4834928;29;20049;-79
2022/07/28 06:43:13;;;;;;;9.20;8.20;;;;;;;41.32;24.86;99528.19;4825298;29;20043;-78
2022/07/28 06:45:39;;;;;;;9.50;8.50;;;;;;;41.30;25.01;99546.69;4818296;29;20043;-81
2022/07/28 06:48:14;;;;;;;11.40;8.65;;;;;;;40.20;25.72;99534.88;4819919;29;20039;-81
2022/07/28 06:50:41;;;;;;;10.52;9.52;;;;;;;38.71;26.74;99541.28;4827723;29;20043;-80
2022/07/28 06:53:07;;;;;;;13.60;9.05;;;;;;;37.59;28.53;99543.97;4824014;29;20073;-81
2022/07/28 06:55:34;;;;;;;10.10;9.10;;;;;;;37.66;28.92;99528.56;4833904;29;20063;-81
2022/07/28 06:58:00;;;;;;;9.52;8.63;;;;;;;37.48;29.12;99524.47;4836335;29;20050;-82
2022/07/28 07:00:26;;;;;;;10.00;8.90;;;;;;;38.85;27.50;99542.19;4836169;29;20110;-81
2022/07/28 07:02:52;;;;;;;9.35;8.48;;;;;;;38.22;27.33;99516.00;4834465;29;20053;-81
2022/07/28 07:05:19;;;;;;;9.43;8.50;;;;;;;37.61;27.95;99531.06;4828853;29;20066;-79
2022/07/28 07:07:45;;;;;;;9.88;8.98;;;;;;;37.57;28.89;99544.16;4815929;29;20165;-82
2022/07/28 07:10:35;;;;;;;10.50;8.70;;;;;;;39.35;27.13;99533.69;4824453;29;20108;-83
2022/07/28 07:13:01;;;;;;;9.32;8.43;;;;;;;41.01;25.75;99516.22;4817449;29;20042;-82
2022/07/28 07:15:28;;;;;;;9.73;8.82;;;;;;;41.73;24.01;99516.94;4817233;29;20113;-80
2022/07/28 07:17:54;;;;;;;10.02;8.85;;;;;;;42.59;23.15;99506.91;4833790;29;20037;-80
2022/07/28 07:20:20;;;;;;;10.00;8.70;;;;;;;43.13;22.67;99508.00;4816612;29;20526;-81
2022/07/28 07:22:47;;;;;;;11.20;8.38;;;;;;;43.98;22.48;99532.44;4801023;29;20053;-82
2022/07/28 07:25:17;;;;;;;9.38;8.45;;;;;;;45.01;21.19;99511.72;4810428;29;20046;-81
2022/07/28 07:27:43;;;;;;;10.00;7.80;;;;;;;44.63;21.12;99542.31;4815782;29;20096;-84
2022/07/28 07:30:10;;;;;;;8.60;7.80;;;;;;;45.32;20.99;99518.56;4786184;29;20054;-80
2022/07/28 07:32:38;;;;;;;9.10;8.20;;;;;;;46.60;19.90;99524.13;4807527;29;20397;-84
2022/07/28 07:35:08;;;;;;;8.98;7.72;;;;;;;47.93;19.02;99532.88;4800594;29;20078;-83
2022/07/28 07:37:37;;;;;;;9.55;7.93;;;;;;;48.75;18.13;99507.53;4808629;29;20047;-80
2022/07/28 07:40:07;;;;;;;9.73;8.63;;;;;;;49.72;17.16;99533.41;4796758;29;20077;-78
2022/07/28 07:42:33;;;;;;;9.70;8.90;;;;;;;50.31;16.13;99510.81;4809094;29;20641;-81
2022/07/28 07:45:08;;;;;;;9.55;8.75;;;;;;;50.87;15.72;99531.75;4813341;29;20150;-84
2022/07/28 07:47:44;;;;;;;9.70;8.70;;;;;;;51.47;15.00;99502.97;4815114;29;20043;-84
2022/07/28 07:50:13;;;;;;;10.57;9.35;;;;;;;50.92;14.55;99503.22;4789909;29;20042;-83
2022/07/28 07:55:58;;;;;;;9.57;8.75;;;;;;;50.26;15.49;99522.72;4781122;29;20523;-81
2022/07/28 07:58:24;;;;;;;9.52;8.15;;;;;;;51.08;14.90;99507.50;4807280;29;20047;-82
2022/07/28 08:00:50;;;;;;;9.90;9.00;;;;;;;50.91;14.63;99507.09;4819623;29;20058;-81
2022/07/28 08:03:16;;;;;;;8.77;8.07;;;;;;;49.47;15.17;99537.06;4801771;29;20045;-80
2022/07/28 08:05:42;;;;;;;9.00;8.20;;;;;;;48.60;16.14;99524.03;4796101;29;20053;-79
2022/07/28 08:08:09;;;;;;;9.73;8.82;;;;;;;48.60;15.77;99529.56;4809515;29;20365;-78
2022/07/28 08:10:37;;;;;;;9.57;8.68;;;;;;;48.04;16.34;99506.19;4797314;29;20054;-85
2022/07/28 08:13:07;;;;;;;9.57;8.77;;;;;;;47.74;16.50;99513.22;4811122;29;20122;-82
2022/07/28 08:15:47;;;;;;;13.80;12.48;;;;;;;47.79;16.39;99521.50;4808418;29;20299;-81
2022/07/28 08:18:23;;;;;;;13.75;12.60;;;;;;;47.42;17.05;99490.16;4810100;29;20057;-81
2022/07/28 08:20:49;;;;;;;15.52;14.23;;;;;;;46.72;17.24;99466.19;4806074;29;20427;-83
2022/07/28 08:28:11;;;;;;;10.38;9.43;;;;;;;47.53;16.49;99493.81;4812842;29;20062;-85
2022/07/28 08:35:31;;;;;;;10.00;9.20;;;;;;;47.99;16.98;99460.16;4807211;29;20981;-84
2022/07/28 08:38:30;;;;;;;9.65;8.75;;;;;;;48.21;16.59;99473.75;4809879;29;20050;-84
2022/07/28 08:40:58;;;;;;;9.30;8.50;;;;;;;48.13;16.44;99454.13;4810695;29;20049;-83
2022/07/28 08:43:41;;;;;;;9.43;8.55;;;;;;;48.36;16.36;99458.34;4808922;29;20050;-82
2022/07/28 08:46:07;;;;;;;9.05;8.35;;;;;;;48.67;16.52;99452.84;4803011;29;20103;-83
2022/07/28 08:48:36;;;;;;;9.07;8.38;;;;;;;48.45;15.92;99434.63;4808790;29;20046;-82
2022/07/28 08:51:08;;;;;;;9.02;8.02;;;;;;;48.52;16.13;99460.03;4810344;29;20419;-83
2022/07/28 08:53:36;;;;;;;10.93;8.70;;;;;;;46.53;16.86;99446.50;4808868;29;20090;-82
2022/07/28 08:56:13;;;;;;;14.00;9.07;;;;;;;43.47;19.80;99459.88;4815166;29;20056;-84
2022/07/28 08:58:40;;;;;;;9.68;8.52;;;;;;;41.07;21.88;99452.63;4813223;29;20102;-81
2022/07/28 09:01:08;;;;;;;11.05;7.90;;;;;;;38.96;24.59;99461.91;4796942;29;20158;-81
2022/07/28 09:03:35;;;;;;;93.60;10.30;;;;;;;37.03;25.21;99461.50;4819476;29;20071;-81
2022/07/28 09:06:05;;;;;;;44.88;6.03;;;;;;;35.25;25.53;99519.06;4810117;29;20053;-81
2022/07/28 09:08:31;;;;;;;32.90;5.57;;;;;;;31.21;28.56;99500.59;4797814;29;20134;-82
2022/07/28 09:10:58;;;;;;;28.25;5.95;;;;;;;26.50;41.08;99575.31;4804668;29;20095;-83
2022/07/28 09:13:27;;;;;;;59.22;6.60;;;;;;;22.99;49.09;99596.50;4811831;29;20115;-86
2022/07/28 09:15:53;;;;;;;22.42;5.97;;;;;;;21.12;59.38;99572.22;4808248;29;20066;-82
2022/07/28 09:18:20;;;;;;;5.60;4.60;;;;;;;21.05;64.97;99550.56;4808219;29;20724;-77
2022/07/28 09:20:46;;;;;;;8.75;5.65;;;;;;;21.31;66.42;99528.84;4811777;29;20047;-81
2022/07/28 09:23:13;;;;;;;5.63;4.70;;;;;;;21.37;66.79;99562.91;4809611;29;20089;-83
2022/07/28 09:25:41;;;;;;;9.05;6.65;;;;;;;21.15;68.73;99550.91;4819921;29;20385;-78
2022/07/28 09:28:12;;;;;;;7.65;5.30;;;;;;;21.21;70.63;99552.34;4806136;29;20046;-79
2022/07/28 09:30:41;;;;;;;10.27;5.43;;;;;;;20.99;70.96;99526.22;4810240;29;20039;-80
2022/07/28 09:33:16;;;;;;;7.05;5.32;;;;;;;21.30;72.69;99541.19;4827057;29;20053;-78
2022/07/28 09:35:53;;;;;;;11.27;7.93;;;;;;;21.69;74.68;99525.75;4822016;29;20050;-80
2022/07/28 09:38:23;;;;;;;12.10;8.77;;;;;;;22.25;75.34;99528.56;4806569;29;20042;-79
2022/07/28 09:40:57;;;;;;;11.05;8.13;;;;;;;22.94;76.62;99522.53;4820133;29;20046;-80
2022/07/28 09:43:36;;;;;;;8.50;4.90;;;;;;;23.26;75.40;99521.41;4815784;29;20104;-81
2022/07/28 09:46:15;;;;;;;11.80;9.35;;;;;;;24.13;78.20;99526.19;4814042;29;20116;-81
2022/07/28 09:49:00;;;;;;;9.73;7.93;;;;;;;25.06;78.42;99493.81;4819235;29;20038;-79
2022/07/28 09:51:32;;;;;;;6.72;5.65;;;;;;;26.47;78.85;99511.56;4817479;29;20042;-81
2022/07/28 09:54:09;;;;;;;7.40;5.90;;;;;;;27.83;79.07;99504.88;4798234;29;20047;-80
2022/07/28 09:56:37;;;;;;;7.53;5.88;;;;;;;28.52;77.58;99467.72;4814628;29;20111;-81
2022/07/28 09:59:04;;;;;;;6.97;6.20;;;;;;;29.38;76.58;99469.78;4818557;29;20038;-82
2022/07/28 10:01:30;;;;;;;6.93;5.20;;;;;;;30.42;74.42;99472.53;4812214;29;20058;-82
2022/07/28 10:03:57;;;;;;;10.25;5.40;;;;;;;30.78;72.12;99473.47;4810419;29;20082;-84
2022/07/28 10:06:31;;;;;;;6.00;4.65;;;;;;;31.23;68.63;99477.06;4813149;29;20042;-85
2022/07/28 10:09:01;;;;;;;6.18;4.50;;;;;;;31.11;63.89;99494.41;4814009;29;20058;-82
2022/07/28 10:11:29;;;;;;;4.40;4.00;;;;;;;30.81;64.36;99491.09;4819401;29;20499;-81
2022/07/28 10:14:04;;;;;;;6.43;4.50;;;;;;;30.69;62.06;99495.00;4813780;29;20527;-82
2022/07/28 10:16:35;;;;;;;5.70;4.10;;;;;;;30.74;61.71;99509.66;4823614;29;20047;-83
2022/07/28 10:19:04;;;;;;;7.65;4.68;;;;;;;31.24;60.29;99476.06;4809916;29;20034;-79
2022/07/28 10:21:34;;;;;;;5.40;4.90;;;;;;;31.30;60.02;99496.13;4805882;29;20807;-80
2022/07/28 10:24:04;;;;;;;6.43;5.80;;;;;;;31.50;59.37;99483.31;4818381;29;20061;-80
2022/07/28 10:26:32;;;;;;;6.18;5.05;;;;;;;32.56;58.18;99461.69;4816994;29;20054;-80
2022/07/28 10:29:03;;;;;;;5.80;5.30;;;;;;;32.26;53.49;99466.63;4817572;29;20066;-84
2022/07/28 10:31:53;;;;;;;5.95;5.40;;;;;;;31.76;54.31;99501.34;4812119;29;20047;-83
2022/07/28 10:34:22;;;;;;;6.80;5.38;;;;;;;31.77;55.35;99521.03;4813296;29;20073;-80
2022/07/28 10:36:55;;;;;;;7.28;5.50;;;;;;;32.12;55.17;99521.88;4823728;29;20092;-78
2022/07/28 10:39:27;;;;;;;6.85;5.85;;;;;;;31.49;54.91;99518.44;4823151;29;20046;-81
2022/07/28 10:41:55;;;;;;;7.47;5.97;;;;;;;30.47;53.63;99550.75;4785731;29;20116;-80
2022/07/28 10:44:22;;;;;;;6.97;6.32;;;;;;;29.25;54.10;99552.22;4804416;29;20055;-82
2022/07/28 10:46:49;;;;;;;8.93;7.72;;;;;;;28.54;54.89;99543.34;4823027;29;20392;-82
2022/07/28 10:49:16;;;;;;;7.95;6.85;;;;;;;27.96;55.19;99548.28;4821585;29;20050;-80
2022/07/28 10:51:45;;;;;;;6.60;6.00;;;;;;;27.45;55.67;99547.19;4810755;29;20462;-83
2022/07/28 10:54:20;;;;;;;19.88;7.53;;;;;;;26.80;56.69;99541.84;4828151;29;20069;-83
2022/07/28 10:56:52;;;;;;;9.98;8.00;;;;;;;25.79;59.76;99578.13;4812318;29;20046;-81
2022/07/28 10:59:25;;;;;;;13.27;9.20;;;;;;;24.74;61.14;99631.88;4809779;29;20510;-78
2022/07/28 11:01:51;;;;;;;17.00;11.45;;;;;;;23.66;65.21;99634.69;4805714;29;20038;-79
2022/07/28 11:04:46;;;;;;;10.20;9.10;;;;;;;22.88;67.06;99639.63;4813915;29;20065;-79
2022/07/28 11:07:15;;;;;;;10.02;8.13;;;;;;;21.76;68.88;99589.78;4813626;29;20050;-80
2022/07/28 11:09:43;;;;;;;12.68;9.05;;;;;;;21.59;70.18;99619.88;4805013;29;20055;-81
2022/07/28 11:12:14;;;;;;;20.40;9.30;;;;;;;21.19;71.09;99586.78;4805823;29;20098;-82
2022/07/28 11:14:41;;;;;;;15.80;9.63;;;;;;;20.97;71.77;99578.34;4797379;29;20051;-80
2022/07/28 11:17:07;;;;;;;15.40;6.70;;;;;;;20.64;72.16;99569.53;4819430;29;20468;-84
2022/07/28 11:19:42;;;;;;;10.32;7.70;;;;;;;20.53;73.96;99546.31;4807960;29;20053;-80
2022/07/28 11:22:18;;;;;;;7.20;5.50;;;;;;;20.48;74.82;99543.09;4808583;29;20053;-82
2022/07/28 11:24:56;;;;;;;7.88;6.05;;;;;;;20.68;75.01;99549.09;4805598;29;20106;-81
2022/07/28 11:27:48;;;;;;;9.15;5.03;;;;;;;20.49;74.11;99562.44;4805800;29;20054;-84
2022/07/28 11:30:17;;;;;;;;;;;;;;;20.18;74.63;99578.13;4803856;29;20141;-82
2022/07/28 11:32:53;;;;;;;7.43;5.43;;;;;;;19.97;75.02;99585.41;4813645;29;20017;-81
2022/07/28 11:35:21;;;;;;;10.15;5.43;;;;;;;19.66;75.03;99579.00;4810959;29;20046;-81
2022/07/28 11:38:14;;;;;;;12.32;6.32;;;;;;;19.74;75.68;99592.66;4808750;29;20050;-80
2022/07/28 11:40:44;;;;;;;10.48;6.75;;;;;;;19.58;75.60;99550.34;4810030;29;20607;-82
2022/07/28 11:43:21;;;;;;;11.23;6.20;;;;;;;19.81;76.51;99557.09;4807546;29;20062;-81
2022/07/28 11:45:48;;;;;;;12.00;8.27;;;;;;;20.00;76.86;99537.69;4812828;29;20046;-80
2022/07/28 11:48:20;;;;;;;8.23;7.15;;;;;;;19.92;76.56;99506.41;4814203;29;20085;-79
2022/07/28 11:51:05;;;;;;;;;;;;;;;20.01;76.49;99536.75;4811582;29;20104;-83